Terminal Aerodrome Forecast
Issued by NWS

Home | Current Version | Previous Version | Text Only | Print | Product List | Glossary On
Versions: 1 2 3 4 5 6 7 8 9 10 11 12 13 14 15 16 17 18
301
FTUS43 KDTX 111728
TAFDET
TAF
KDET 111728Z 1118/1218 29011KT P6SM SCT035 BKN045
     FM120100 25006KT P6SM SCT045
     FM120800 23006KT P6SM BKN150
     FM121500 25012G19KT P6SM BKN030=

USA.gov is the U.S. government's official web portal to all federal, state and local government web resources and services.